Dzerzhinsk, Belarus
Current Conditions -  °F | °C
As of 7:30 PM on Saturday 22 Nov 2014 (Local Time) from UMMM Reporting Station
Clear Clear  
Wind Chill: 28°   Ceiling: Unl
Heat Index: 28°   Visibility: 4mi
Dew Point: 25°   Wind: 0mph
Humidity: 86%   Direction: NA
Pressure: 30.36"   Gusts: NA
Location:  53.69°N, 27.14°E
Report Text: UMMM 221730Z 00000MPS 6000 NSC M02/M04 Q1028 R12/930240NOSIG RMK QFE750
Loading
Personal Weather Stations






























Interactive Weather Map New forecast layout! Learn more

10-Day Weather Forecast

Advertisements
Track Severe Weather on mobile